Time;durP1;ratioP1;P1;durP2;ratioP2;P2;SDS_P1;SDS_P2;PMS_P1;PMS_P2;Temp;Humidity;BMP_temperature;BMP_pressure;BME280_temperature;BME280_humidity;BME280_pressure;Samples;Min_cycle;Max_cycle;Signal;HPM_P1;HPM_P2
2023/11/01 00:01:27;;;;;;;;;;;17.80;94.80;;;;;;6126764;23;20344;-80
2023/11/01 00:03:52;;;;;;;;;;;17.80;94.90;;;;;;6127300;23;19901;-80
2023/11/01 00:06:18;;;;;;;;;;;17.90;95.00;;;;;;6126940;23;19972;-80
2023/11/01 00:08:44;;;;;;;;;;;17.90;95.10;;;;;;6126636;23;19901;-72
2023/11/01 00:11:10;;;;;;;;;;;17.90;95.00;;;;;;6126652;23;19980;-72
2023/11/01 00:13:35;;;;;;;;;;;17.80;94.90;;;;;;6126630;23;19905;-72
2023/11/01 00:16:00;;;;;;;;;;;17.90;95.10;;;;;;6127244;23;19907;-72
2023/11/01 00:18:26;;;;;;;;;;;17.90;95.00;;;;;;6126551;23;19901;-72
2023/11/01 00:20:51;;;;;;;;;;;17.90;95.10;;;;;;6126449;23;19904;-72
2023/11/01 00:23:18;;;;;;;;;;;17.90;95.00;;;;;;6126484;23;20261;-72
2023/11/01 00:25:43;;;;;;;;;;;18.00;95.00;;;;;;6127463;23;19932;-80
2023/11/01 00:28:09;;;;;;;;;;;18.00;94.80;;;;;;6126481;23;19901;-80
2023/11/01 00:30:35;;;;;;;;;;;17.90;95.10;;;;;;6126432;23;19912;-81
2023/11/01 00:33:00;;;;;;;;;;;18.00;95.10;;;;;;6126303;23;20339;-81
2023/11/01 00:35:26;;;;;;;;;;;17.90;94.90;;;;;;6126434;23;19908;-72
2023/11/01 00:37:52;;;;;;;;;;;17.90;94.90;;;;;;6126436;23;19912;-80
2023/11/01 00:40:18;;;;;;;;;;;17.90;94.90;;;;;;6126205;23;19988;-80
2023/11/01 00:42:44;;;;;;;;;;;18.00;95.10;;;;;;6126670;23;19965;-81
2023/11/01 00:45:10;;;;;;;;;;;18.00;95.00;;;;;;6126623;23;19975;-80
2023/11/01 00:47:36;;;;;;;;;;;18.00;95.10;;;;;;6126691;23;19928;-80
2023/11/01 00:50:02;;;;;;;;;;;18.00;95.00;;;;;;6126762;23;19901;-80
2023/11/01 00:52:28;;;;;;;;;;;17.90;94.90;;;;;;6127466;23;19941;-73
2023/11/01 00:54:54;;;;;;;;;;;18.00;95.20;;;;;;6126658;23;19904;-73
2023/11/01 00:57:20;;;;;;;;;;;18.00;95.10;;;;;;6126841;23;20294;-74
2023/11/01 00:59:46;;;;;;;;;;;18.00;95.10;;;;;;6126658;23;19909;-74
2023/11/01 01:02:12;;;;;;;;;;;18.00;94.90;;;;;;6126694;23;19901;-73
2023/11/01 01:04:38;;;;;;;;;;;18.00;95.10;;;;;;6126740;23;19907;-72
2023/11/01 01:07:03;;;;;;;;;;;18.00;95.10;;;;;;6126537;23;20265;-73
2023/11/01 01:09:29;;;;;;;;;;;18.00;95.10;;;;;;6125960;23;19908;-72
2023/11/01 01:11:54;;;;;;;;;;;18.00;95.10;;;;;;6125766;23;19905;-72
2023/11/01 01:14:20;;;;;;;;;;;18.10;95.10;;;;;;6125849;23;20340;-72
2023/11/01 01:16:46;;;;;;;;;;;18.00;95.00;;;;;;6125837;23;19901;-72
2023/11/01 01:19:12;;;;;;;;;;;18.00;95.10;;;;;;6125684;23;19915;-72
2023/11/01 01:21:37;;;;;;;;;;;18.00;95.00;;;;;;6126372;23;19939;-80
2023/11/01 01:24:03;;;;;;;;;;;17.90;95.00;;;;;;6125824;23;19900;-81
2023/11/01 01:26:29;;;;;;;;;;;18.00;94.60;;;;;;6125772;23;19956;-81
2023/11/01 01:28:54;;;;;;;;;;;18.00;95.20;;;;;;6125767;23;19979;-81
2023/11/01 01:31:21;;;;;;;;;;;18.00;95.00;;;;;;6125685;23;19928;-80
2023/11/01 01:33:46;;;;;;;;;;;18.00;95.10;;;;;;6125790;23;19901;-72
2023/11/01 01:36:12;;;;;;;;;;;18.00;95.20;;;;;;6125185;23;20344;-72
2023/11/01 01:38:38;;;;;;;;;;;18.00;95.10;;;;;;6125896;23;19975;-72
2023/11/01 01:41:04;;;;;;;;;;;18.20;95.20;;;;;;6125594;23;20384;-72
2023/11/01 01:43:30;;;;;;;;;;;18.00;95.20;;;;;;6125724;23;19905;-72
2023/11/01 01:46:09;;;;;;;;;;;17.90;95.00;;;;;;6125662;23;19905;-72
2023/11/01 01:48:35;;;;;;;;;;;18.00;92.90;;;;;;6135238;23;19901;-72
2023/11/01 01:51:01;;;;;;;;;;;18.00;95.20;;;;;;6126099;23;19901;-80
2023/11/01 01:53:26;;;;;;;;;;;17.90;94.80;;;;;;6125592;23;19901;-80
2023/11/01 01:55:52;;;;;;;;;;;18.00;95.10;;;;;;6126228;23;19954;-80
2023/11/01 01:58:18;;;;;;;;;;;18.00;95.00;;;;;;6125356;23;19901;-80
2023/11/01 02:00:44;;;;;;;;;;;18.10;95.10;;;;;;6125720;23;20377;-80
2023/11/01 02:03:09;;;;;;;;;;;17.90;94.90;;;;;;6125292;23;19901;-80
2023/11/01 02:05:35;;;;;;;;;;;18.10;95.20;;;;;;6125820;23;19962;-80
2023/11/01 02:08:01;;;;;;;;;;;18.10;95.20;;;;;;6125243;23;19929;-80
2023/11/01 02:10:27;;;;;;;;;;;18.00;95.00;;;;;;6125419;23;20237;-80
2023/11/01 02:12:52;;;;;;;;;;;18.10;95.10;;;;;;6125976;23;20317;-80
2023/11/01 02:15:18;;;;;;;;;;;18.00;95.20;;;;;;6125368;23;19901;-80
2023/11/01 02:17:43;;;;;;;;;;;18.10;95.10;;;;;;6126075;23;19976;-72
2023/11/01 02:20:09;;;;;;;;;;;18.00;95.10;;;;;;6125500;23;20000;-71
2023/11/01 02:22:35;;;;;;;;;;;17.80;94.90;;;;;;6125585;23;20316;-72
2023/11/01 02:25:01;;;;;;;;;;;18.00;95.10;;;;;;6125577;23;19935;-72
2023/11/01 02:27:28;;;;;;;;;;;18.00;95.00;;;;;;6125798;23;19901;-72
2023/11/01 02:29:55;;;;;;;;;;;18.10;95.00;;;;;;6125920;23;19901;-80
2023/11/01 02:32:22;;;;;;;;;;;18.10;95.10;;;;;;6125287;23;19901;-80
2023/11/01 02:34:47;;;;;;;;;;;18.00;95.00;;;;;;6125294;23;20206;-79
2023/11/01 02:37:13;;;;;;;;;;;18.10;95.20;;;;;;6125268;23;19901;-80
2023/11/01 02:39:39;;;;;;;;;;;18.10;95.20;;;;;;6125052;23;19913;-80
2023/11/01 02:42:04;;;;;;;;;;;18.00;95.00;;;;;;6125135;23;19901;-79
2023/11/01 02:44:30;;;;;;;;;;;18.10;95.10;;;;;;6125168;23;19999;-80
2023/11/01 02:46:55;;;;;;;;;;;18.00;95.10;;;;;;6126015;23;19956;-80
2023/11/01 02:49:21;;;;;;;;;;;18.00;95.00;;;;;;6127115;23;20317;-80
2023/11/01 02:51:46;;;;;;;;;;;18.10;95.20;;;;;;6127288;23;19980;-80
2023/11/01 02:54:12;;;;;;;;;;;18.00;95.00;;;;;;6127083;23;19901;-80
2023/11/01 02:56:37;;;;;;;;;;;17.80;94.90;;;;;;6127107;23;20303;-79
2023/11/01 02:59:02;;;;;;;;;;;18.00;95.00;;;;;;6127050;23;20015;-80
2023/11/01 03:01:30;;;;;;;;;;;18.00;94.90;;;;;;6126973;23;20022;-80
2023/11/01 03:03:56;;;;;;;;;;;18.00;95.10;;;;;;6127484;23;19964;-80
2023/11/01 03:06:22;;;;;;;;;;;18.10;95.10;;;;;;6127610;23;19901;-80
2023/11/01 03:08:50;;;;;;;;;;;18.10;95.20;;;;;;6127269;23;20317;-80
2023/11/01 03:11:16;;;;;;;;;;;18.10;95.10;;;;;;6127429;23;19904;-80
2023/11/01 03:13:42;;;;;;;;;;;18.00;95.00;;;;;;6127532;23;19931;-80
2023/11/01 03:16:08;;;;;;;;;;;18.00;95.10;;;;;;6128047;23;19972;-72
2023/11/01 03:18:36;;;;;;;;;;;18.00;94.90;;;;;;6127199;23;19908;-72
2023/11/01 03:21:03;;;;;;;;;;;18.00;95.30;;;;;;6127408;23;20230;-72
2023/11/01 03:23:29;;;;;;;;;;;17.90;94.70;;;;;;6127281;23;20241;-72
2023/11/01 03:25:55;;;;;;;;;;;18.10;95.20;;;;;;6126958;23;19912;-71
2023/11/01 03:28:21;;;;;;;;;;;18.00;95.10;;;;;;6127076;23;19907;-80
2023/11/01 03:30:47;;;;;;;;;;;18.00;95.20;;;;;;6127407;23;19901;-80
2023/11/01 03:33:13;;;;;;;;;;;18.00;95.10;;;;;;6127347;23;19901;-80
2023/11/01 03:35:39;;;;;;;;;;;18.00;95.20;;;;;;6126890;23;20222;-80
2023/11/01 03:38:05;;;;;;;;;;;17.90;95.00;;;;;;6127207;23;19904;-79
2023/11/01 03:40:31;;;;;;;;;;;18.10;95.10;;;;;;6136461;23;19987;-81
2023/11/01 03:42:57;;;;;;;;;;;18.00;95.20;;;;;;6127128;23;19909;-80
2023/11/01 03:45:22;;;;;;;;;;;18.00;95.00;;;;;;6127320;23;19983;-72
2023/11/01 03:47:48;;;;;;;;;;;18.00;95.20;;;;;;6126704;23;19908;-72
2023/11/01 03:50:14;;;;;;;;;;;;;;;;;;6126691;23;19901;-73
2023/11/01 03:52:40;;;;;;;;;;;18.00;93.00;;;;;;6126515;23;19907;-72
2023/11/01 03:55:11;;;;;;;;;;;18.00;95.10;;;;;;6126694;23;19905;-78
2023/11/01 03:57:36;;;;;;;;;;;18.00;94.60;;;;;;6136358;23;19901;-80
2023/11/01 04:00:02;;;;;;;;;;;17.90;95.10;;;;;;6126515;23;19956;-80
2023/11/01 04:02:28;;;;;;;;;;;18.00;95.10;;;;;;6126967;23;19908;-80
2023/11/01 04:04:54;;;;;;;;;;;18.00;95.20;;;;;;6127139;23;19901;-84
2023/11/01 04:07:20;;;;;;;;;;;18.10;95.30;;;;;;6127286;23;19908;-83
2023/11/01 04:09:46;;;;;;;;;;;18.00;95.40;;;;;;6127208;23;20288;-82
2023/11/01 04:12:12;;;;;;;;;;;18.00;95.30;;;;;;6127783;23;20222;-73
2023/11/01 04:14:38;;;;;;;;;;;18.10;95.40;;;;;;6126805;23;19908;-73
2023/11/01 04:17:04;;;;;;;;;;;18.00;95.60;;;;;;6126810;23;19901;-74
2023/11/01 04:19:31;;;;;;;;;;;18.00;95.30;;;;;;6127077;23;19953;-71
2023/11/01 04:21:57;;;;;;;;;;;17.90;95.30;;;;;;6126876;23;19912;-71
2023/11/01 04:24:24;;;;;;;;;;;18.00;94.20;;;;;;6126743;23;19935;-73
2023/11/01 04:26:52;;;;;;;;;;;18.00;95.30;;;;;;6127125;23;19901;-73
2023/11/01 04:29:17;;;;;;;;;;;18.10;95.40;;;;;;6126612;23;20302;-73
2023/11/01 04:31:43;;;;;;;;;;;18.10;95.30;;;;;;6126432;23;19929;-73
2023/11/01 04:34:10;;;;;;;;;;;18.10;95.40;;;;;;6126499;23;19928;-73
2023/11/01 04:36:37;;;;;;;;;;;18.10;95.40;;;;;;6126530;23;19905;-73
2023/11/01 04:39:03;;;;;;;;;;;18.00;95.10;;;;;;6126230;23;20321;-73
2023/11/01 04:41:28;;;;;;;;;;;18.10;95.10;;;;;;6127032;23;19921;-73
2023/11/01 04:43:54;;;;;;;;;;;18.10;95.30;;;;;;6126350;23;20284;-74
2023/11/01 04:46:19;;;;;;;;;;;18.00;95.30;;;;;;6126321;23;19936;-73
2023/11/01 04:48:45;;;;;;;;;;;18.10;95.50;;;;;;6126259;23;19912;-73
2023/11/01 04:51:11;;;;;;;;;;;18.10;95.40;;;;;;6100212;23;20214;-73
2023/11/01 04:53:37;;;;;;;;;;;18.10;95.40;;;;;;6126262;23;19907;-74
2023/11/01 04:56:05;;;;;;;;;;;18.10;95.30;;;;;;6126164;23;20015;-73
2023/11/01 04:58:41;;;;;;;;;;;17.90;95.10;;;;;;6126115;23;19976;-73
2023/11/01 05:01:07;;;;;;;;;;;18.10;95.30;;;;;;6126247;23;19909;-81
2023/11/01 05:03:36;;;;;;;;;;;18.00;95.20;;;;;;6126862;23;19933;-81
2023/11/01 05:06:02;;;;;;;;;;;18.10;93.20;;;;;;6126002;23;19912;-80
2023/11/01 05:08:28;;;;;;;;;;;18.10;95.20;;;;;;6126398;23;19901;-79
2023/11/01 05:10:53;;;;;;;;;;;18.10;95.30;;;;;;6126224;23;19905;-79
2023/11/01 05:13:19;;;;;;;;;;;18.10;95.30;;;;;;6126010;23;19907;-79
2023/11/01 05:15:44;;;;;;;;;;;18.10;95.30;;;;;;6126204;23;19901;-79
2023/11/01 05:18:10;;;;;;;;;;;18.10;95.40;;;;;;6125745;23;20281;-80
2023/11/01 05:20:36;;;;;;;;;;;18.30;95.40;;;;;;6125844;23;19921;-80
2023/11/01 05:23:01;;;;;;;;;;;18.10;95.50;;;;;;6125668;23;19901;-80
2023/11/01 05:25:27;;;;;;;;;;;18.40;95.40;;;;;;6126387;23;19901;-79
2023/11/01 05:27:53;;;;;;;;;;;18.10;95.30;;;;;;6127066;23;20024;-79
2023/11/01 05:30:19;;;;;;;;;;;18.20;95.30;;;;;;6126552;23;20329;-80
2023/11/01 05:32:46;;;;;;;;;;;18.00;95.20;;;;;;6126211;23;19952;-80
2023/11/01 05:35:12;;;;;;;;;;;18.30;95.60;;;;;;6125751;23;20359;-80
2023/11/01 05:37:41;;;;;;;;;;;18.10;95.40;;;;;;6125996;23;19901;-80
2023/11/01 05:40:13;;;;;;;;;;;18.20;93.10;;;;;;6125709;23;19913;-79
2023/11/01 05:42:40;;;;;;;;;;;18.10;92.90;;;;;;6135684;23;20323;-80
2023/11/01 05:45:06;;;;;;;;;;;18.30;95.20;;;;;;6125853;23;19959;-80
2023/11/01 05:47:31;;;;;;;;;;;18.10;94.90;;;;;;6099500;23;19924;-80
2023/11/01 05:49:57;;;;;;;;;;;18.10;95.10;;;;;;6125584;23;19979;-80
2023/11/01 05:52:22;;;;;;;;;;;18.10;95.40;;;;;;6125459;23;19901;-80
2023/11/01 05:54:48;;;;;;;;;;;18.10;95.20;;;;;;6125580;23;19901;-80
2023/11/01 05:57:13;;;;;;;;;;;18.10;95.10;;;;;;6126274;23;20232;-72
2023/11/01 05:59:39;;;;;;;;;;;18.10;95.30;;;;;;6125416;23;19909;-72
2023/11/01 06:02:05;;;;;;;;;;;18.20;95.20;;;;;;6125345;23;20321;-72
2023/11/01 06:04:32;;;;;;;;;;;18.10;95.20;;;;;;6125647;23;19988;-72
2023/11/01 06:06:58;;;;;;;;;;;18.20;95.20;;;;;;6125481;23;20233;-72
2023/11/01 06:09:23;;;;;;;;;;;17.60;95.20;;;;;;6125577;23;19931;-72
2023/11/01 06:11:49;;;;;;;;;;;18.10;95.30;;;;;;6125280;23;19901;-72
2023/11/01 06:14:14;;;;;;;;;;;18.10;95.30;;;;;;6125207;23;19901;-72
2023/11/01 06:16:40;;;;;;;;;;;18.20;95.20;;;;;;6125325;23;19900;-72
2023/11/01 06:19:05;;;;;;;;;;;18.20;95.40;;;;;;6125712;23;19913;-72
2023/11/01 06:21:31;;;;;;;;;;;18.20;95.40;;;;;;6125022;23;20332;-72
2023/11/01 06:23:57;;;;;;;;;;;18.20;95.30;;;;;;6124621;23;20288;-72
2023/11/01 06:26:23;;;;;;;;;;;18.20;95.30;;;;;;6125359;23;19901;-79
2023/11/01 06:28:48;;;;;;;;;;;18.20;95.30;;;;;;6125160;23;19901;-80
2023/11/01 06:31:16;;;;;;;;;;;18.20;95.40;;;;;;6125202;23;19908;-79
2023/11/01 06:33:41;;;;;;;;;;;18.00;95.30;;;;;;6124341;23;19900;-80
2023/11/01 06:36:08;;;;;;;;;;;18.30;95.40;;;;;;6125275;23;20317;-72
2023/11/01 06:38:33;;;;;;;;;;;18.30;94.80;;;;;;6124902;23;19936;-72
2023/11/01 06:41:01;;;;;;;;;;;18.30;95.30;;;;;;6124806;23;19905;-72
2023/11/01 06:43:27;;;;;;;;;;;18.20;95.40;;;;;;6124930;23;19971;-72
2023/11/01 06:45:53;;;;;;;;;;;18.20;95.30;;;;;;6125019;23;19968;-73
2023/11/01 06:48:18;;;;;;;;;;;18.20;95.30;;;;;;6125088;23;19901;-72
2023/11/01 06:50:44;;;;;;;;;;;18.30;95.40;;;;;;6125101;23;20266;-72
2023/11/01 06:53:10;;;;;;;;;;;18.10;95.20;;;;;;6125720;23;19901;-79
2023/11/01 06:55:35;;;;;;;;;;;18.20;95.50;;;;;;6125144;23;19905;-80
2023/11/01 06:58:07;;;;;;;;;;;18.00;95.00;;;;;;6135237;23;19901;-80
2023/11/01 07:00:33;;;;;;;;;;;18.20;95.40;;;;;;6125251;23;20311;-80
2023/11/01 07:02:59;;;;;;;;;;;18.20;95.30;;;;;;6125305;23;19901;-80
2023/11/01 07:05:26;;;;;;;;;;;18.30;95.30;;;;;;6125691;23;19905;-72
2023/11/01 07:07:53;;;;;;;;;;;18.20;95.20;;;;;;6125756;23;19901;-72
2023/11/01 07:10:18;;;;;;;;;;;18.30;95.30;;;;;;6125685;23;19908;-72
2023/11/01 07:12:44;;;;;;;;;;;18.00;95.10;;;;;;6125708;23;19900;-72
2023/11/01 07:15:11;;;;;;;;;;;18.30;95.30;;;;;;6125323;23;20343;-71
2023/11/01 07:17:37;;;;;;;;;;;18.20;95.40;;;;;;6125220;23;20317;-72
2023/11/01 07:20:04;;;;;;;;;;;18.20;95.40;;;;;;6125209;23;19909;-71
2023/11/01 07:22:30;;;;;;;;;;;18.20;95.20;;;;;;6125577;23;20213;-72
2023/11/01 07:24:56;;;;;;;;;;;18.20;95.20;;;;;;6125094;23;19905;-72
2023/11/01 07:27:22;;;;;;;;;;;18.20;95.10;;;;;;6124958;23;20374;-72
2023/11/01 07:29:47;;;;;;;;;;;18.20;95.30;;;;;;6125088;23;19972;-72
2023/11/01 07:32:13;;;;;;;;;;;18.30;95.40;;;;;;6125093;23;19901;-72
2023/11/01 07:34:40;;;;;;;;;;;18.30;95.00;;;;;;6126832;23;19956;-72
2023/11/01 07:37:05;;;;;;;;;;;18.30;95.30;;;;;;6127247;23;19904;-73
2023/11/01 07:39:31;;;;;;;;;;;18.20;95.10;;;;;;6102083;23;19936;-74
2023/11/01 07:41:56;;;;;;;;;;;18.20;95.40;;;;;;6100734;23;19958;-75
2023/11/01 07:44:22;;;;;;;;;;;18.20;95.00;;;;;;6126757;23;19912;-74
2023/11/01 07:46:47;;;;;;;;;;;18.10;95.30;;;;;;6126714;23;19901;-75
2023/11/01 07:49:13;;;;;;;;;;;18.20;95.20;;;;;;6126610;23;19901;-73
2023/11/01 07:51:38;;;;;;;;;;;18.30;95.30;;;;;;6127143;23;19905;-77
2023/11/01 07:54:04;;;;;;;;;;;18.40;95.30;;;;;;6126722;23;19916;-76
2023/11/01 07:56:30;;;;;;;;;;;18.30;95.00;;;;;;6126620;23;19909;-77
2023/11/01 07:58:57;;;;;;;;;;;17.10;95.00;;;;;;6127011;23;19966;-76
2023/11/01 08:01:22;;;;;;;;;;;18.30;95.20;;;;;;6126517;23;19900;-72
2023/11/01 08:03:49;;;;;;;;;;;18.20;95.30;;;;;;6126608;23;19901;-73
2023/11/01 08:06:15;;;;;;;;;;;18.30;95.30;;;;;;6126543;23;20059;-74
2023/11/01 08:08:40;;;;;;;;;;;18.20;95.20;;;;;;6126315;23;19908;-75
2023/11/01 08:11:07;;;;;;;;;;;18.30;95.40;;;;;;6100198;23;19901;-73
2023/11/01 08:13:33;;;;;;;;;;;18.30;95.30;;;;;;6126589;23;19908;-75
2023/11/01 08:15:59;;;;;;;;;;;18.30;95.30;;;;;;6126657;23;19900;-75
2023/11/01 08:18:24;;;;;;;;;;;18.30;95.30;;;;;;6126715;23;19972;-74
2023/11/01 08:20:50;;;;;;;;;;;18.30;95.40;;;;;;6126151;23;19963;-74
2023/11/01 08:23:15;;;;;;;;;;;18.30;95.20;;;;;;6126352;23;19904;-74
2023/11/01 08:25:41;;;;;;;;;;;18.30;95.40;;;;;;6125370;23;20237;-75
2023/11/01 08:28:06;;;;;;;;;;;18.30;95.40;;;;;;6126381;23;19907;-76
2023/11/01 08:30:32;;;;;;;;;;;18.40;95.40;;;;;;6126503;23;19920;-77
2023/11/01 08:32:57;;;;;;;;;;;18.20;95.20;;;;;;6126872;23;19964;-75
2023/11/01 08:35:23;;;;;;;;;;;18.40;95.50;;;;;;6126269;23;19929;-75
2023/11/01 08:37:48;;;;;;;;;;;18.30;95.30;;;;;;6126175;23;19944;-73
2023/11/01 08:40:14;;;;;;;;;;;18.30;95.40;;;;;;6126008;23;19916;-78
2023/11/01 08:42:40;;;;;;;;;;;18.30;95.30;;;;;;6126216;23;20257;-75
2023/11/01 08:45:06;;;;;;;;;;;18.40;95.50;;;;;;6125750;23;19909;-80
2023/11/01 08:47:36;;;;;;;;;;;18.30;95.10;;;;;;6126536;23;19901;-74
2023/11/01 08:50:02;;;;;;;;;;;18.40;93.20;;;;;;6126025;23;20276;-75
2023/11/01 08:52:29;;;;;;;;;;;18.60;95.60;;;;;;6126178;23;19911;-75
2023/11/01 08:54:57;;;;;;;;;;;18.40;95.60;;;;;;6126591;23;19979;-74
2023/11/01 08:57:23;;;;;;;;;;;18.40;95.40;;;;;;6126370;23;19924;-75
2023/11/01 08:59:52;;;;;;;;;;;18.50;95.50;;;;;;6126546;23;19909;-75
2023/11/01 09:02:19;;;;;;;;;;;18.40;95.20;;;;;;6126082;23;19901;-75
2023/11/01 09:04:46;;;;;;;;;;;18.40;95.30;;;;;;6126402;23;20322;-75
2023/11/01 09:07:12;;;;;;;;;;;18.40;95.60;;;;;;6126543;23;19956;-75
2023/11/01 09:09:38;;;;;;;;;;;18.40;95.40;;;;;;6126186;23;19905;-74
2023/11/01 09:12:04;;;;;;;;;;;18.50;95.50;;;;;;6126371;23;19908;-75
2023/11/01 09:14:30;;;;;;;;;;;18.40;95.00;;;;;;6126433;23;19937;-75
2023/11/01 09:16:56;;;;;;;;;;;18.40;95.30;;;;;;6126986;23;20269;-75
2023/11/01 09:19:22;;;;;;;;;;;18.40;95.40;;;;;;6125949;23;19909;-74
2023/11/01 09:21:47;;;;;;;;;;;18.40;95.50;;;;;;6126013;23;19907;-75
2023/11/01 09:24:13;;;;;;;;;;;18.50;95.70;;;;;;6125835;23;19905;-77
2023/11/01 09:26:38;;;;;;;;;;;18.50;95.60;;;;;;6126187;23;19976;-88
2023/11/01 09:29:04;;;;;;;;;;;18.40;95.60;;;;;;6100812;23;19912;-75
2023/11/01 09:31:34;;;;;;;;;;;18.50;95.50;;;;;;6127412;23;19904;-73
2023/11/01 09:33:59;;;;;;;;;;;18.50;95.80;;;;;;6099469;23;19956;-73
2023/11/01 09:36:25;;;;;;;;;;;18.40;95.60;;;;;;6125696;23;20352;-73
2023/11/01 09:38:52;;;;;;;;;;;18.60;95.60;;;;;;6125335;23;19912;-75
2023/11/01 09:41:22;;;;;;;;;;;18.50;95.50;;;;;;6125598;23;19901;-72
2023/11/01 09:43:49;;;;;;;;;;;18.60;95.50;;;;;;6136225;23;19908;-73
2023/11/01 09:46:15;;;;;;;;;;;18.60;95.80;;;;;;6125488;23;19947;-75
2023/11/01 09:48:40;;;;;;;;;;;18.50;95.80;;;;;;6125566;23;19908;-73
2023/11/01 09:51:06;;;;;;;;;;;18.50;95.60;;;;;;6125612;23;19928;-75
2023/11/01 09:53:32;;;;;;;;;;;18.50;95.50;;;;;;6125587;23;19901;-74
2023/11/01 09:55:57;;;;;;;;;;;18.70;95.70;;;;;;6125946;23;19907;-81
2023/11/01 09:58:23;;;;;;;;;;;18.60;95.70;;;;;;6126351;23;20274;-80
2023/11/01 10:00:51;;;;;;;;;;;18.70;95.70;;;;;;6126313;23;19909;-78
2023/11/01 10:03:19;;;;;;;;;;;18.60;95.50;;;;;;6125477;23;19908;-78
2023/11/01 10:05:45;;;;;;;;;;;18.60;95.60;;;;;;6126297;23;19901;-78
2023/11/01 10:08:11;;;;;;;;;;;18.60;95.50;;;;;;6126064;23;19901;-78
2023/11/01 10:10:37;;;;;;;;;;;18.60;95.40;;;;;;6126417;23;19979;-78
2023/11/01 10:13:04;;;;;;;;;;;18.50;95.50;;;;;;6126312;23;19901;-78
2023/11/01 10:15:33;;;;;;;;;;;18.60;95.50;;;;;;6126096;23;19983;-75
2023/11/01 10:17:59;;;;;;;;;;;18.60;93.10;;;;;;6126146;23;19907;-75
2023/11/01 10:20:28;;;;;;;;;;;18.60;95.50;;;;;;6126025;23;19940;-76
2023/11/01 10:22:55;;;;;;;;;;;18.70;93.30;;;;;;6125573;23;19901;-75
2023/11/01 10:25:20;;;;;;;;;;;18.70;95.70;;;;;;6125437;23;19900;-75
2023/11/01 10:27:47;;;;;;;;;;;18.80;95.60;;;;;;6099469;23;20340;-74
2023/11/01 10:30:13;;;;;;;;;;;18.60;95.30;;;;;;6135020;23;20333;-74
2023/11/01 10:32:39;;;;;;;;;;;18.70;95.50;;;;;;6126075;23;19901;-76
2023/11/01 10:35:11;;;;;;;;;;;18.70;95.50;;;;;;6126009;23;19994;-77
2023/11/01 10:37:37;;;;;;;;;;;18.80;93.30;;;;;;6126118;23;20272;-77
2023/11/01 10:40:10;;;;;;;;;;;18.80;95.60;;;;;;6125321;23;19947;-77
2023/11/01 10:42:38;;;;;;;;;;;18.80;93.30;;;;;;6125455;23;19955;-80
2023/11/01 10:45:04;;;;;;;;;;;18.70;95.70;;;;;;6125778;23;20280;-77
2023/11/01 10:47:31;;;;;;;;;;;18.80;95.00;;;;;;6125338;23;19901;-78
2023/11/01 10:49:57;;;;;;;;;;;18.70;95.60;;;;;;6125639;23;19905;-77
2023/11/01 10:52:26;;;;;;;;;;;18.70;95.50;;;;;;6125364;23;19901;-77
2023/11/01 10:54:53;;;;;;;;;;;18.70;93.20;;;;;;6125764;23;19920;-81
2023/11/01 10:57:20;;;;;;;;;;;18.80;95.60;;;;;;6125961;23;19900;-81
2023/11/01 10:59:52;;;;;;;;;;;18.70;95.40;;;;;;6099768;23;20336;-76
2023/11/01 11:02:34;;;;;;;;;;;18.70;95.30;;;;;;6130142;23;19901;-75
2023/11/01 11:05:05;;;;;;;;;;;18.70;93.20;;;;;;6125662;23;19931;-75
2023/11/01 11:07:37;;;;;;;;;;;18.80;93.40;;;;;;6125218;23;19908;-75
2023/11/01 11:10:23;;;;;;;;;;;18.80;95.50;;;;;;6137117;23;19908;-75
2023/11/01 11:13:08;;;;;;;;;;;18.80;93.20;;;;;;6127541;23;19908;-72
2023/11/01 11:15:46;;;;;;;;;;;18.90;93.30;;;;;;6127619;23;19972;-73
2023/11/01 11:18:18;;;;;;;;;;;18.80;93.20;;;;;;6127754;23;19933;-73
2023/11/01 11:20:44;;;;;;;;;;;18.80;93.00;;;;;;6127240;23;19919;-73
2023/11/01 11:23:13;;;;;;;;;;;18.80;95.40;;;;;;6127744;23;19928;-74
2023/11/01 11:25:40;;;;;;;;;;;18.80;95.40;;;;;;6127481;23;19900;-74
2023/11/01 11:28:06;;;;;;;;;;;18.90;95.20;;;;;;6127868;23;19984;-74
2023/11/01 11:30:44;;;;;;;;;;;18.80;95.00;;;;;;6127622;23;20317;-76
2023/11/01 11:33:11;;;;;;;;;;;18.80;93.10;;;;;;6127452;23;19901;-73
2023/11/01 11:35:37;;;;;;;;;;;18.90;95.30;;;;;;6127357;23;19900;-73
2023/11/01 11:38:22;;;;;;;;;;;18.80;95.40;;;;;;6127266;23;20101;-75
2023/11/01 11:41:08;;;;;;;;;;;19.00;93.20;;;;;;6136552;23;19909;-85
2023/11/01 11:43:54;;;;;;;;;;;18.90;95.50;;;;;;6126566;23;19907;-74
2023/11/01 11:46:27;;;;;;;;;;;18.80;95.20;;;;;;6103175;23;19901;-74
2023/11/01 11:48:53;;;;;;;;;;;18.90;93.10;;;;;;6127461;23;19947;-74
2023/11/01 11:51:19;;;;;;;;;;;19.00;95.40;;;;;;6127045;23;19990;-74
2023/11/01 11:53:45;;;;;;;;;;;18.90;95.10;;;;;;6127024;23;19986;-74
2023/11/01 11:56:12;;;;;;;;;;;19.00;95.20;;;;;;6127777;23;19901;-73
2023/11/01 11:58:38;;;;;;;;;;;19.00;95.20;;;;;;6126913;23;19975;-73
2023/11/01 12:01:04;;;;;;;;;;;18.90;95.20;;;;;;6127241;23;19964;-73
2023/11/01 12:03:30;;;;;;;;;;;18.90;95.10;;;;;;6126571;23;19924;-73
2023/11/01 12:05:57;;;;;;;;;;;19.00;95.30;;;;;;6126844;23;19905;-73
2023/11/01 12:08:32;;;;;;;;;;;19.00;95.20;;;;;;6126922;23;19901;-73
2023/11/01 12:10:58;;;;;;;;;;;19.10;93.00;;;;;;6127153;23;19979;-73
2023/11/01 12:13:38;;;;;;;;;;;19.10;95.30;;;;;;6126675;23;19929;-73
2023/11/01 12:16:04;;;;;;;;;;;19.00;95.40;;;;;;6136531;23;19901;-73
2023/11/01 12:18:30;;;;;;;;;;;18.90;95.10;;;;;;6126340;23;20217;-73
2023/11/01 12:20:56;;;;;;;;;;;18.80;95.20;;;;;;6126458;23;19912;-73
2023/11/01 12:23:22;;;;;;;;;;;18.90;95.20;;;;;;6126759;23;19932;-73
2023/11/01 12:25:48;;;;;;;;;;;19.10;95.40;;;;;;6127029;23;19907;-73
2023/11/01 12:28:23;;;;;;;;;;;19.00;95.20;;;;;;6126679;23;19979;-73
2023/11/01 12:30:50;;;;;;;;;;;19.40;93.10;;;;;;6126706;23;19904;-73
2023/11/01 12:33:19;;;;;;;;;;;19.20;95.20;;;;;;6126824;23;19951;-74
2023/11/01 12:35:45;;;;;;;;;;;19.30;92.90;;;;;;6126398;23;19905;-73
2023/11/01 12:38:15;;;;;;;;;;;19.30;94.90;;;;;;6126815;23;20292;-73
2023/11/01 12:40:40;;;;;;;;;;;19.40;92.70;;;;;;6136300;23;19909;-73
2023/11/01 12:43:07;;;;;;;;;;;19.30;95.00;;;;;;6136176;23;20280;-72
2023/11/01 12:45:33;;;;;;;;;;;19.20;94.80;;;;;;6136105;23;19908;-73
2023/11/01 12:47:59;;;;;;;;;;;19.20;95.00;;;;;;6135881;23;19901;-74
2023/11/01 12:50:24;;;;;;;;;;;20.30;95.40;;;;;;6136110;23;19908;-74
2023/11/01 12:52:50;;;;;;;;;;;19.30;95.20;;;;;;6126481;23;19901;-74
2023/11/01 12:55:16;;;;;;;;;;;19.30;95.30;;;;;;6126725;23;20244;-75
2023/11/01 12:57:42;;;;;;;;;;;19.20;95.20;;;;;;6126236;23;19932;-75
2023/11/01 13:00:08;;;;;;;;;;;19.20;95.20;;;;;;6126179;23;19992;-75
2023/11/01 13:02:35;;;;;;;;;;;19.20;95.30;;;;;;6125995;23;19901;-75
2023/11/01 13:05:02;;;;;;;;;;;19.20;95.50;;;;;;6126062;23;19996;-79
2023/11/01 13:07:30;;;;;;;;;;;19.20;95.50;;;;;;6126277;23;20320;-80
2023/11/01 13:09:55;;;;;;;;;;;19.20;95.50;;;;;;6126196;23;19907;-76
2023/11/01 13:12:21;;;;;;;;;;;19.20;95.70;;;;;;6126341;23;19900;-80
2023/11/01 13:14:47;;;;;;;;;;;19.20;95.60;;;;;;6126577;23;19931;-79
2023/11/01 13:17:13;;;;;;;;;;;19.10;95.50;;;;;;6126222;23;20305;-77
2023/11/01 13:19:41;;;;;;;;;;;19.20;95.60;;;;;;6126129;23;19909;-78
2023/11/01 13:22:07;;;;;;;;;;;19.20;95.60;;;;;;6126628;23;20313;-85
2023/11/01 13:24:32;;;;;;;;;;;19.10;95.40;;;;;;6125970;23;19943;-78
2023/11/01 13:26:58;;;;;;;;;;;19.20;95.60;;;;;;6099983;23;19911;-77
2023/11/01 13:29:23;;;;;;;;;;;19.30;95.70;;;;;;6099873;23;19940;-76
2023/11/01 13:31:49;;;;;;;;;;;19.10;95.40;;;;;;6099840;23;19952;-78
2023/11/01 13:34:15;;;;;;;;;;;19.20;95.60;;;;;;6075704;23;19905;-79
2023/11/01 13:36:40;;;;;;;;;;;19.20;95.70;;;;;;6099977;23;19905;-77
2023/11/01 13:39:06;;;;;;;;;;;19.10;95.40;;;;;;6125505;23;19917;-76
2023/11/01 13:41:32;;;;;;;;;;;19.20;95.60;;;;;;6126506;23;19901;-77
2023/11/01 13:43:58;;;;;;;;;;;19.20;95.70;;;;;;6125888;23;20299;-77
2023/11/01 13:46:23;;;;;;;;;;;19.20;95.50;;;;;;6125896;23;19905;-77
2023/11/01 13:48:49;;;;;;;;;;;19.20;95.60;;;;;;6125866;23;20309;-77
2023/11/01 13:51:14;;;;;;;;;;;19.30;95.60;;;;;;6126895;23;19901;-73
2023/11/01 13:53:41;;;;;;;;;;;19.20;95.50;;;;;;6125646;23;19908;-74
2023/11/01 13:56:08;;;;;;;;;;;19.20;95.50;;;;;;6125585;23;19901;-74
2023/11/01 13:58:35;;;;;;;;;;;19.20;95.00;;;;;;6099445;23;19908;-74
2023/11/01 14:01:01;;;;;;;;;;;19.50;95.70;;;;;;6125502;23;19948;-74
2023/11/01 14:03:27;;;;;;;;;;;19.10;95.30;;;;;;6126153;23;19901;-74
2023/11/01 14:05:53;;;;;;;;;;;19.20;95.50;;;;;;6125617;23;20332;-74
2023/11/01 14:08:18;;;;;;;;;;;19.30;95.50;;;;;;6125588;23;19901;-73
2023/11/01 14:10:47;;;;;;;;;;;19.20;95.50;;;;;;6125568;23;19908;-73
2023/11/01 14:13:13;;;;;;;;;;;19.20;95.40;;;;;;6125404;23;19907;-75
2023/11/01 14:15:40;;;;;;;;;;;19.20;95.60;;;;;;6125456;23;19968;-75